Time;durP1;ratioP1;P1;durP2;ratioP2;P2;SDS_P1;SDS_P2;PMS_P1;PMS_P2;Temp;Humidity;BMP_temperature;BMP_pressure;BME280_temperature;BME280_humidity;BME280_pressure;Samples;Min_cycle;Max_cycle;Signal;HPM_P1;HPM_P2
2023/04/20 00:00:56;;;;;;;;;17.33;14.67;;;;;12.74;36.87;101142.63;5078090;28;45290;-72
2023/04/20 00:03:22;;;;;;;;;15.00;12.00;;;;;13.01;37.80;101200.53;5059745;28;48668;-73
2023/04/20 00:05:50;;;;;;;;;16.33;13.67;;;;;12.49;37.53;101117.50;5078190;28;45437;-72
2023/04/20 00:08:16;;;;;;;;;14.67;13.00;;;;;9.77;37.48;100667.69;5078382;27;45297;-75
2023/04/20 00:10:43;;;;;;;;;14.33;14.00;;;;;12.32;38.08;101102.25;5078664;27;45569;-73
2023/04/20 00:13:08;;;;;;;;;16.67;14.67;;;;;12.72;38.03;101179.28;5077389;27;46677;-72
2023/04/20 00:15:34;;;;;;;;;12.00;11.67;;;;;12.68;38.61;101182.41;5077586;28;45369;-74
2023/04/20 00:17:59;;;;;;;;;17.00;12.33;;;;;12.54;38.61;101156.22;5077260;28;45462;-72
2023/04/20 00:20:24;;;;;;;;;10.33;10.33;;;;;12.50;38.66;101182.34;5077740;28;45198;-73
2023/04/20 00:22:50;;;;;;;;;10.33;10.33;;;;;12.37;38.63;101171.97;5075984;28;48463;-72
2023/04/20 00:25:16;;;;;;;;;16.00;14.00;;;;;12.36;39.32;101180.97;5076226;27;45332;-72
2023/04/20 00:27:41;;;;;;;;;15.33;13.33;;;;;12.47;39.19;101179.97;5076766;27;59355;-70
2023/04/20 00:30:08;;;;;;;;;14.00;13.00;;;;;12.29;38.73;101139.88;5077618;27;45249;-73
2023/04/20 00:32:33;;;;;;;;;12.67;12.67;;;;;12.53;39.06;101184.72;5077305;28;45523;-72
2023/04/20 00:34:58;;;;;;;;;13.33;13.33;;;;;12.37;39.02;101179.97;5058837;28;45900;-72
2023/04/20 00:37:24;;;;;;;;;12.67;12.33;;;;;12.37;39.04;101177.31;5077335;28;45484;-72
2023/04/20 00:39:50;;;;;;;;;13.33;13.00;;;;;12.38;39.17;101192.31;5075781;28;45455;-71
2023/04/20 00:42:15;;;;;;;;;13.67;12.67;;;;;12.38;39.20;101171.00;5076992;27;45545;-71
2023/04/20 00:44:41;;;;;;;;;14.00;13.67;;;;;12.27;39.44;101151.69;5076853;28;45340;-72
2023/04/20 00:47:06;;;;;;;;;12.33;12.33;;;;;12.52;39.05;101171.53;5075438;28;46021;-71
2023/04/20 00:49:31;;;;;;;;;10.67;9.33;;;;;12.26;39.45;101131.34;5076626;28;45403;-71
2023/04/20 00:51:58;;;;;;;;;13.00;11.33;;;;;11.47;39.13;101009.09;5076929;27;46684;-72
2023/04/20 00:54:28;;;;;;;;;10.67;8.67;;;;;12.30;39.74;101148.72;5058376;28;46477;-71
2023/04/20 00:56:56;;;;;;;;;12.67;11.00;;;;;12.39;39.39;101161.16;5077494;28;45580;-72
2023/04/20 00:59:22;;;;;;;;;15.67;14.00;;;;;12.38;39.24;101133.66;5077947;27;45534;-70
2023/04/20 01:01:47;;;;;;;;;17.33;12.33;;;;;12.25;39.44;101116.34;5058990;28;47697;-73
2023/04/20 01:04:13;;;;;;;;;13.33;13.00;;;;;12.55;39.18;101165.88;5076792;28;45345;-71
2023/04/20 01:06:38;;;;;;;;;10.33;9.00;;;;;12.45;39.02;101140.13;5075516;27;45423;-71
2023/04/20 01:09:04;;;;;;;;;16.00;14.33;;;;;12.58;39.07;101155.75;5077167;28;45417;-70
2023/04/20 01:11:29;;;;;;;;;15.00;12.00;;;;;12.52;39.04;101156.34;5076933;28;46999;-72
2023/04/20 01:13:54;;;;;;;;;18.33;14.00;;;;;11.66;39.44;101038.34;5077053;27;45238;-72
2023/04/20 01:16:21;;;;;;;;;14.33;12.33;;;;;11.88;39.58;101086.00;5077122;28;45470;-71
2023/04/20 01:18:48;;;;;;;;;9.33;9.33;;;;;12.39;39.36;101148.69;5058766;28;45530;-74
2023/04/20 01:21:16;;;;;;;;;12.33;11.00;;;;;12.25;39.88;101146.50;5058230;28;46000;-71
2023/04/20 01:23:41;;;;;;;;;11.33;11.00;;;;;12.24;39.91;101159.97;5078682;28;45534;-71
2023/04/20 01:26:09;;;;;;;;;12.00;11.33;;;;;11.30;39.65;100985.88;5080250;27;45443;-71
2023/04/20 01:28:34;;;;;;;;;14.33;14.33;;;;;11.91;40.23;101086.69;5080148;27;45246;-71
2023/04/20 01:31:01;;;;;;;;;13.00;13.00;;;;;11.89;40.30;101073.50;5079830;28;46706;-71
2023/04/20 01:33:27;;;;;;;;;11.67;10.33;;;;;11.93;40.14;101095.38;5080145;27;45300;-71
2023/04/20 01:35:52;;;;;;;;;10.33;10.33;;;;;11.73;40.23;101075.91;5080544;28;45447;-72
2023/04/20 01:38:19;;;;;;;;;13.00;12.00;;;;;12.03;40.70;101128.19;5080214;28;45510;-72
2023/04/20 01:40:44;;;;;;;;;11.00;11.00;;;;;12.00;40.20;101123.13;5079872;27;45683;-71
2023/04/20 01:43:10;;;;;;;;;11.33;11.33;;;;;11.99;40.56;101116.09;5080380;27;45844;-73
2023/04/20 01:45:35;;;;;;;;;13.33;9.00;;;;;11.34;40.25;101035.19;5079669;27;45538;-72
2023/04/20 01:48:01;;;;;;;;;8.00;8.00;;;;;11.11;40.77;101005.38;5080141;27;45549;-73
2023/04/20 01:50:26;;;;;;;;;12.33;10.33;;;;;11.61;40.77;101101.84;5080019;27;45522;-71
2023/04/20 01:52:51;;;;;;;;;9.00;9.00;;;;;10.66;40.67;100950.91;5079599;27;47772;-77
2023/04/20 01:55:17;;;;;;;;;13.00;12.67;;;;;11.63;40.64;101126.53;5080788;27;45501;-73
2023/04/20 01:57:43;;;;;;;;;12.00;7.67;;;;;11.31;40.91;101072.72;5062208;27;45588;-71
2023/04/20 02:00:10;;;;;;;;;11.00;9.33;;;;;11.26;41.32;101065.16;5079429;28;46070;-74
2023/04/20 02:02:35;;;;;;;;;15.33;11.00;;;;;11.44;40.84;101102.56;5079190;28;45257;-70
2023/04/20 02:05:01;;;;;;;;;7.67;6.67;;;;;11.18;41.15;101073.84;5079757;28;45286;-72
2023/04/20 02:07:26;;;;;;;;;11.67;10.00;;;;;10.93;41.56;101047.78;5080149;28;45347;-70
2023/04/20 02:09:51;;;;;;;;;10.00;10.00;;;;;11.42;41.13;101107.22;5060711;28;47349;-72
2023/04/20 02:12:17;;;;;;;;;13.00;11.33;;;;;11.47;41.59;101131.56;5079401;27;45205;-70
2023/04/20 02:14:42;;;;;;;;;14.67;12.33;;;;;11.31;41.46;101117.97;5078781;27;45411;-73
2023/04/20 02:17:08;;;;;;;;;9.67;8.00;;;;;10.90;41.74;101056.03;5079393;28;45560;-71
2023/04/20 02:19:33;;;;;;;;;12.33;11.33;;;;;10.46;41.73;101017.50;5079164;27;45339;-72
2023/04/20 02:21:58;;;;;;;;;11.33;10.00;;;;;11.19;41.85;101123.41;5079244;28;45601;-72
2023/04/20 02:24:24;;;;;;;;;11.67;8.67;;;;;11.01;42.10;101133.06;5078787;28;47931;-72
2023/04/20 02:26:49;;;;;;;;;8.33;8.00;;;;;8.12;42.80;100678.78;5079939;27;45554;-71
2023/04/20 02:29:15;;;;;;;;;7.00;7.00;;;;;10.99;42.40;101127.03;5079539;27;46488;-71
2023/04/20 02:31:40;;;;;;;;;10.00;8.33;;;;;11.03;42.04;101120.47;5061043;28;46801;-72
2023/04/20 02:34:08;;;;;;;;;7.67;7.67;;;;;11.11;42.14;101112.66;5077963;27;45523;-72
2023/04/20 02:36:34;;;;;;;;;10.00;8.67;;;;;11.24;42.22;101141.66;5079316;28;45234;-71
2023/04/20 02:38:59;;;;;;;;;11.67;9.00;;;;;10.81;42.46;101065.72;5060160;28;47772;-71
2023/04/20 02:41:25;;;;;;;;;9.00;8.00;;;;;10.60;42.27;101049.81;5078953;27;45389;-71
2023/04/20 02:43:50;;;;;;;;;10.67;8.00;;;;;11.02;42.51;101121.47;5060593;28;45353;-72
2023/04/20 02:46:16;;;;;;;;;10.67;8.00;;;;;11.15;42.09;101135.31;5057163;28;45724;-72
2023/04/20 02:48:42;;;;;;;;;8.00;7.00;;;;;10.59;42.51;101066.75;5073987;28;46150;-70
2023/04/20 02:51:07;;;;;;;;;8.67;7.67;;;;;10.97;42.77;101126.34;5078728;27;45456;-72
2023/04/20 02:53:33;;;;;;;;;8.00;7.00;;;;;11.06;42.64;101144.16;5060542;28;45308;-71
2023/04/20 02:55:59;;;;;;;;;8.00;7.00;;;;;10.55;42.47;101068.00;5079161;27;45370;-72
2023/04/20 02:58:25;;;;;;;;;8.00;8.00;;;;;10.49;42.69;101073.88;5078865;28;46413;-72
2023/04/20 03:00:50;;;;;;;;;10.67;8.67;;;;;10.80;42.81;101132.31;5078447;27;45419;-71
2023/04/20 03:03:16;;;;;;;;;9.33;7.33;;;;;10.75;43.02;101126.56;5078978;27;45286;-71
2023/04/20 03:05:42;;;;;;;;;7.33;7.33;;;;;10.59;42.86;101093.34;5078627;27;45562;-71
2023/04/20 03:08:08;;;;;;;;;7.33;7.33;;;;;10.72;43.02;101142.78;5059516;28;45520;-72
2023/04/20 03:10:33;;;;;;;;;6.00;6.00;;;;;10.66;43.07;101137.06;5078266;27;45207;-70
2023/04/20 03:12:59;;;;;;;;;6.33;6.33;;;;;10.52;43.10;101123.28;5078553;28;45472;-72
2023/04/20 03:15:24;;;;;;;;;6.00;6.00;;;;;10.50;43.34;101136.69;5078674;28;45381;-71
2023/04/20 03:17:50;;;;;;;;;7.67;7.67;;;;;9.52;43.33;100984.09;5059801;28;47078;-70
2023/04/20 03:20:15;;;;;;;;;7.67;7.33;;;;;10.47;43.35;101144.94;5078344;28;45327;-69
2023/04/20 03:22:41;;;;;;;;;7.67;7.67;;;;;10.30;43.20;101130.47;5078534;27;45261;-72
2023/04/20 03:25:06;;;;;;;;;7.33;6.67;;;;;9.63;43.88;101043.25;5078256;27;45383;-72
2023/04/20 03:27:32;;;;;;;;;10.33;9.00;;;;;9.91;43.84;101072.75;5078187;27;46712;-71
2023/04/20 03:29:57;;;;;;;;;5.00;5.00;;;;;10.29;43.61;101142.06;5078057;28;45466;-71
2023/04/20 03:32:22;;;;;;;;;7.00;7.00;;;;;9.87;43.26;101072.19;5078414;28;45199;-73
2023/04/20 03:34:47;;;;;;;;;8.00;7.00;;;;;10.04;43.41;101098.16;5078295;28;45318;-70
2023/04/20 03:37:13;;;;;;;;;9.67;8.67;;;;;9.89;43.35;101072.06;5077933;27;45478;-70
2023/04/20 03:39:39;;;;;;;;;4.33;4.33;;;;;10.06;43.33;101090.88;5077625;28;45458;-72
2023/04/20 03:42:05;;;;;;;;;7.00;6.00;;;;;9.40;43.38;100970.88;5078030;27;45602;-72
2023/04/20 03:44:30;;;;;;;;;4.00;4.00;;;;;9.54;43.40;101003.38;5078869;27;45490;-71
2023/04/20 03:46:56;;;;;;;;;8.00;8.00;;;;;10.38;43.33;101139.56;5076751;27;46435;-73
2023/04/20 03:49:26;;;;;;;;;7.33;5.00;;;;;10.33;42.90;101126.69;5077535;27;45505;-70
2023/04/20 03:51:51;;;;;;;;;5.00;5.00;;;;;10.26;43.23;101128.22;5077883;28;45423;-70
2023/04/20 03:54:17;;;;;;;;;8.00;7.00;;;;;9.90;43.00;101055.97;5077192;27;52090;-71
2023/04/20 03:56:44;;;;;;;;;8.33;7.33;;;;;10.25;42.97;101110.59;5076443;28;47721;-72
2023/04/20 03:59:10;;;;;;;;;8.00;5.33;;;;;10.09;43.09;101088.94;5059307;28;45376;-71
2023/04/20 04:01:37;;;;;;;;;5.00;5.00;;;;;10.27;43.13;101143.19;5077641;28;45387;-71
2023/04/20 04:04:03;;;;;;;;;7.00;5.67;;;;;9.70;43.01;101035.59;5059692;28;45254;-72
2023/04/20 04:06:28;;;;;;;;;8.00;7.00;;;;;10.33;43.04;101139.97;5077371;27;45511;-70
2023/04/20 04:08:54;;;;;;;;;8.33;7.00;;;;;10.36;42.83;101151.19;5076085;28;63582;-71
2023/04/20 04:11:19;;;;;;;;;12.00;7.67;;;;;9.97;43.19;101085.50;5077097;27;45504;-72
2023/04/20 04:13:45;;;;;;;;;7.67;6.67;;;;;10.28;43.33;101142.19;5059660;28;45186;-72
2023/04/20 04:16:10;;;;;;;;;6.67;6.67;;;;;10.03;42.88;101125.69;5077324;28;45523;-71
2023/04/20 04:18:35;;;;;;;;;6.33;6.33;;;;;9.96;43.38;101137.78;5076783;27;63128;-72
2023/04/20 04:21:01;;;;;;;;;8.33;8.33;;;;;9.89;43.39;101135.78;5077499;28;45164;-71
2023/04/20 04:23:26;;;;;;;;;6.00;6.00;;;;;9.90;43.48;101148.94;5077562;28;45701;-73
2023/04/20 04:25:52;;;;;;;;;6.00;5.67;;;;;9.71;43.51;101165.56;5058960;28;47673;-72
2023/04/20 04:28:18;;;;;;;;;8.00;7.00;;;;;9.45;43.62;101117.31;5077502;27;45316;-72
2023/04/20 04:30:44;;;;;;;;;5.67;5.67;;;;;9.20;43.88;101093.75;5077458;28;45442;-72
2023/04/20 04:33:11;;;;;;;;;6.33;5.67;;;;;9.60;43.60;101156.81;5077506;28;45328;-73
2023/04/20 04:35:39;;;;;;;;;3.00;3.00;;;;;9.65;43.48;101166.09;5076745;28;45986;-72
2023/04/20 04:38:04;;;;;;;;;7.67;7.00;;;;;8.45;43.83;100993.03;5076800;27;45360;-72
2023/04/20 04:40:31;;;;;;;;;8.00;8.00;;;;;9.19;43.74;101152.25;5076252;28;51385;-73
2023/04/20 04:42:57;;;;;;;;;7.67;7.33;;;;;9.11;43.91;101137.81;5077520;28;45364;-71
2023/04/20 04:45:24;;;;;;;;;12.00;9.67;;;;;9.36;43.77;101164.97;5058890;28;45759;-72
2023/04/20 04:47:51;;;;;;;;;9.00;9.00;;;;;8.99;43.83;101112.28;5076766;28;45419;-70
2023/04/20 04:50:17;;;;;;;;;7.67;5.67;;;;;9.31;43.74;101175.13;5077059;28;45280;-71
2023/04/20 04:52:44;;;;;;;;;10.33;8.67;;;;;9.10;44.01;101157.34;5075642;28;45419;-72
2023/04/20 04:55:09;;;;;;;;;6.00;6.00;;;;;9.19;43.95;101176.97;5075883;28;45623;-72
2023/04/20 04:57:35;;;;;;;;;8.67;8.00;;;;;8.98;44.15;101128.31;5077345;27;45340;-72
2023/04/20 05:00:00;;;;;;;;;6.00;6.00;;;;;8.83;43.64;101114.50;5080654;27;45539;-71
2023/04/20 05:02:26;;;;;;;;;8.00;6.67;;;;;9.04;44.47;101164.97;5080564;28;45291;-73
2023/04/20 05:04:51;;;;;;;;;6.00;6.00;;;;;8.69;43.85;101094.41;5061911;28;47351;-72
2023/04/20 05:07:16;;;;;;;;;7.33;6.00;;;;;9.07;43.96;101172.69;5080713;27;45497;-72
2023/04/20 05:09:42;;;;;;;;;8.67;8.67;;;;;8.33;43.86;101031.91;5080056;28;45308;-71
2023/04/20 05:12:07;;;;;;;;;7.00;7.00;;;;;8.80;43.67;101118.22;5080417;28;45496;-71
2023/04/20 05:14:33;;;;;;;;;12.00;8.00;;;;;9.23;43.67;101202.31;5075049;27;45560;-73
2023/04/20 05:16:59;;;;;;;;;9.67;8.67;;;;;9.11;43.68;101182.06;5079519;28;45438;-72
2023/04/20 05:19:25;;;;;;;;;10.00;8.33;;;;;8.63;44.22;101128.53;5080409;28;45458;-71
2023/04/20 05:21:50;;;;;;;;;11.00;9.00;;;;;8.89;44.04;101174.16;5078451;27;45429;-72
2023/04/20 05:24:16;;;;;;;;;5.00;5.00;;;;;8.76;43.90;101171.63;5079502;27;46874;-71
2023/04/20 05:26:42;;;;;;;;;7.00;7.00;;;;;8.94;44.12;101201.97;5091375;27;45569;-70
2023/04/20 05:29:07;;;;;;;;;5.00;5.00;;;;;8.96;43.98;101208.00;5100457;27;45240;-70
2023/04/20 05:31:32;;;;;;;;;5.67;3.33;;;;;8.80;44.29;101186.31;5097622;27;45531;-71
2023/04/20 05:33:58;;;;;;;;;6.00;6.00;;;;;8.30;43.89;101100.19;5064430;27;45390;-74
2023/04/20 05:36:24;;;;;;;;;12.00;11.33;;;;;9.11;44.04;101212.09;5059462;28;45563;-72
2023/04/20 05:38:49;;;;;;;;;10.67;9.00;;;;;8.84;43.65;101164.75;5059069;28;45297;-73
2023/04/20 05:41:14;;;;;;;;;8.00;8.00;;;;;8.93;44.15;101188.84;5067193;28;45264;-72
2023/04/20 05:43:40;;;;;;;;;10.33;9.00;;;;;9.11;43.75;101200.63;5078249;27;45702;-71
2023/04/20 05:46:05;;;;;;;;;8.00;6.00;;;;;8.62;43.23;101103.81;5061930;27;45484;-71
2023/04/20 05:48:30;;;;;;;;;9.00;8.00;;;;;8.92;43.44;101144.72;5059904;28;45522;-74
2023/04/20 05:50:57;;;;;;;;;11.67;9.00;;;;;9.24;42.97;101200.50;5076402;27;45561;-70
2023/04/20 05:53:22;;;;;;;;;9.00;9.00;;;;;9.11;43.33;101187.38;5072140;27;46608;-72
2023/04/20 05:55:47;;;;;;;;;10.00;10.00;;;;;8.83;42.93;101144.50;5079044;27;45330;-73
2023/04/20 05:58:14;;;;;;;;;10.33;8.67;;;;;9.15;43.00;101208.22;5079382;27;45592;-72
2023/04/20 06:00:39;;;;;;;;;9.00;9.00;;;;;8.67;42.85;101141.41;5079577;27;45219;-72
2023/04/20 06:03:05;;;;;;;;;12.00;10.33;;;;;8.88;42.95;101164.50;5080149;28;46022;-72
2023/04/20 06:05:30;;;;;;;;;8.00;8.00;;;;;9.28;42.89;101221.34;5081738;27;45427;-72
2023/04/20 06:07:55;;;;;;;;;9.33;9.33;;;;;9.28;43.18;101212.53;5080478;27;45434;-74
2023/04/20 06:10:21;;;;;;;;;10.33;8.00;;;;;9.34;42.76;101215.53;5053988;28;45308;-71
2023/04/20 06:12:46;;;;;;;;;11.33;9.00;;;;;9.33;42.80;101205.03;5079055;28;45522;-75
2023/04/20 06:15:12;;;;;;;;;18.00;12.00;;;;;8.93;42.56;101152.56;5073311;27;46485;-72
2023/04/20 06:17:39;;;;;;;;;7.33;7.00;;;;;8.96;42.71;101140.84;5050963;28;45424;-73
2023/04/20 06:20:09;;;;;;;;;6.67;6.33;;;;;9.27;42.40;101161.28;5079498;28;45181;-77
2023/04/20 06:22:35;;;;;;;;;8.00;8.00;;;;;9.47;41.70;101195.97;5077926;27;46427;-75
2023/04/20 06:25:01;;;;;;;;;12.33;10.00;;;;;9.66;41.68;101206.75;5061340;28;45415;-72
2023/04/20 06:27:27;;;;;;;;;7.00;7.00;;;;;9.66;41.73;101202.28;5079523;27;45392;-71
2023/04/20 06:29:53;;;;;;;;;7.33;6.67;;;;;9.71;41.23;101192.13;5079978;28;46028;-74
2023/04/20 06:32:19;;;;;;;;;10.00;10.00;;;;;10.45;40.01;101192.09;5083542;27;45714;-73
2023/04/20 06:34:46;;;;;;;;;4.67;3.67;;;;;10.78;38.45;101099.69;5081617;27;45374;-72
2023/04/20 06:37:12;;;;;;;;;10.67;9.00;;;;;12.24;37.58;101200.81;5099056;27;45339;-72
2023/04/20 06:39:37;;;;;;;;;7.00;5.33;;;;;12.92;35.72;101179.22;5099155;27;45427;-73
2023/04/20 06:42:02;;;;;;;;;11.00;10.00;;;;;13.68;34.70;101207.28;5083607;27;45648;-73
2023/04/20 06:44:28;;;;;;;;;12.00;11.00;;;;;13.96;33.46;101164.41;5059687;28;53967;-74
2023/04/20 06:46:53;;;;;;;;;9.00;9.00;;;;;14.12;32.96;101151.16;5078639;28;45749;-73
2023/04/20 06:49:18;;;;;;;;;11.67;10.67;;;;;14.63;32.00;101151.31;5078580;27;45409;-75
2023/04/20 06:51:44;;;;;;;;;8.00;7.33;;;;;15.05;30.94;101167.38;5069807;27;45712;-76
2023/04/20 06:54:09;;;;;;;;;12.33;11.67;;;;;15.39;30.80;101183.34;5069816;27;45885;-72
2023/04/20 06:56:35;;;;;;;;;11.67;10.33;;;;;15.80;30.36;101190.44;5077445;28;45686;-73
2023/04/20 06:59:00;;;;;;;;;13.00;11.33;;;;;16.35;29.85;101196.94;5078863;27;45341;-74
2023/04/20 07:01:25;;;;;;;;;12.67;12.00;;;;;16.53;28.43;101125.13;5077253;28;65173;-72
2023/04/20 07:03:51;;;;;;;;;9.33;8.33;;;;;17.08;28.72;101169.88;5076981;27;45563;-72
2023/04/20 07:06:16;;;;;;;;;11.67;9.67;;;;;17.23;27.77;101178.88;5078847;28;45803;-72
2023/04/20 07:08:42;;;;;;;;;11.67;11.67;;;;;17.28;27.37;101181.88;5078734;27;45406;-72
2023/04/20 07:11:07;;;;;;;;;13.00;11.67;;;;;17.20;27.59;101168.47;5078307;27;45326;-74
2023/04/20 07:13:32;;;;;;;;;14.67;11.33;;;;;17.44;27.41;101207.81;5090036;27;45426;-74
2023/04/20 07:15:58;;;;;;;;;9.67;7.00;;;;;17.91;27.11;101215.75;5086566;27;45263;-73
2023/04/20 07:18:23;;;;;;;;;10.33;10.33;;;;;18.13;26.72;101191.69;5078098;28;45482;-73
2023/04/20 07:20:49;;;;;;;;;9.33;8.67;;;;;18.61;26.16;101166.09;5059540;27;46653;-74
2023/04/20 07:23:14;;;;;;;;;11.67;11.67;;;;;19.71;25.42;101187.56;5087987;27;45442;-74
2023/04/20 07:25:39;;;;;;;;;14.33;12.33;;;;;20.11;25.10;101148.25;5083505;27;45758;-74
2023/04/20 07:28:05;;;;;;;;;10.67;10.67;;;;;20.95;24.01;101194.91;5086176;27;45185;-72
2023/04/20 07:30:30;;;;;;;;;15.00;12.00;;;;;21.33;23.76;101193.63;5099157;27;45979;-74
2023/04/20 07:32:56;;;;;;;;;11.33;10.67;;;;;20.83;23.56;101090.31;5087029;27;45435;-72
2023/04/20 07:35:22;;;;;;;;;12.00;12.00;;;;;21.17;23.47;101171.28;5067040;27;45494;-73
2023/04/20 07:37:47;;;;;;;;;12.33;10.67;;;;;20.96;23.40;101133.56;5082539;27;45297;-74
2023/04/20 07:40:13;;;;;;;;;9.00;9.00;;;;;21.16;23.42;101175.03;5077757;28;46184;-75
2023/04/20 07:42:38;;;;;;;;;11.00;11.00;;;;;20.84;23.63;101162.22;5073087;27;45358;-76
2023/04/20 07:45:05;;;;;;;;;16.00;13.33;;;;;21.28;23.25;101185.31;5072384;27;45443;-74
2023/04/20 07:47:31;;;;;;;;;7.00;7.00;;;;;20.70;23.42;101165.91;5086849;27;45427;-75
2023/04/20 07:49:57;;;;;;;;;11.00;9.33;;;;;20.69;24.20;101158.81;5064550;27;49148;-75
2023/04/20 07:52:23;;;;;;;;;12.00;11.00;;;;;21.19;23.27;101161.09;5096548;27;45526;-73
2023/04/20 07:54:49;;;;;;;;;12.33;12.00;;;;;21.75;22.82;101170.81;5074244;27;45519;-73
2023/04/20 07:57:14;;;;;;;;;8.00;8.00;;;;;21.83;22.92;101178.75;5046055;28;45583;-74
2023/04/20 07:59:40;;;;;;;;;15.33;12.67;;;;;21.84;22.94;101124.41;5077639;27;45603;-75
2023/04/20 08:02:06;;;;;;;;;14.67;11.00;;;;;22.71;22.33;101172.00;5062362;28;45470;-76
2023/04/20 08:04:32;;;;;;;;;11.00;11.00;;;;;22.25;21.53;101036.69;5084707;27;45462;-75
2023/04/20 08:06:57;;;;;;;;;14.67;14.00;;;;;22.82;21.48;101120.88;5059518;28;45244;-75
2023/04/20 08:09:24;;;;;;;;;15.67;11.67;;;;;23.58;20.88;101172.44;5076430;27;45622;-76
2023/04/20 08:11:50;;;;;;;;;12.67;11.00;;;;;23.98;20.41;101141.22;5072398;28;45360;-74
2023/04/20 08:14:15;;;;;;;;;13.33;13.33;;;;;23.64;20.46;101080.13;5077383;27;45291;-76
2023/04/20 08:16:40;;;;;;;;;11.67;11.67;;;;;24.11;20.45;101150.31;5073421;27;45453;-75
2023/04/20 08:19:09;;;;;;;;;12.00;12.00;;;;;24.50;20.25;101162.72;5091069;27;45567;-72
2023/04/20 08:21:41;;;;;;;;;14.33;13.00;;;;;24.51;19.98;101154.31;5058181;28;45447;-77
2023/04/20 08:24:07;;;;;;;;;13.67;13.67;;;;;23.14;20.78;101110.94;5069063;27;45414;-76
2023/04/20 08:26:33;;;;;;;;;13.33;12.33;;;;;22.19;20.95;101029.38;5075282;27;45555;-75
2023/04/20 08:28:59;;;;;;;;;16.00;14.67;;;;;22.43;21.25;101133.53;5077088;27;46209;-73
2023/04/20 08:31:25;;;;;;;;;14.33;13.67;;;;;21.89;22.20;101150.84;5058833;28;45388;-76
2023/04/20 08:33:50;;;;;;;;;14.33;13.00;;;;;21.13;22.47;101005.09;5082055;27;45435;-75
2023/04/20 08:36:16;;;;;;;;;12.00;12.00;;;;;21.66;22.06;101005.13;5064124;28;45309;-75
2023/04/20 08:38:42;;;;;;;;;19.33;16.67;;;;;22.59;21.16;101054.44;5076084;27;46206;-76
2023/04/20 08:41:07;;;;;;;;;14.67;13.00;;;;;23.23;20.15;101083.34;5076755;27;45337;-75
2023/04/20 08:43:33;;;;;;;;;14.33;14.33;;;;;23.27;19.96;101137.97;5077349;27;45474;-75
2023/04/20 08:46:02;;;;;;;;;15.67;13.67;;;;;23.01;21.17;101160.63;5102808;27;45562;-75
2023/04/20 08:48:36;;;;;;;;;17.67;16.67;;;;;21.94;21.71;101120.44;5071743;28;47526;-75
2023/04/20 08:51:03;;;;;;;;;15.00;15.00;;;;;21.95;21.40;101101.25;5064759;28;45530;-75
2023/04/20 08:53:29;;;;;;;;;18.00;18.00;;;;;21.45;21.90;101133.34;5061926;27;45314;-83
2023/04/20 08:55:56;;;;;;;;;14.33;14.33;;;;;21.39;22.05;101123.31;5082199;27;45642;-75
2023/04/20 08:58:23;;;;;;;;;15.33;15.33;;;;;21.15;21.65;101072.50;5076669;27;46535;-74
2023/04/20 09:00:49;;;;;;;;;19.33;16.00;;;;;21.13;21.86;101144.88;5064173;27;45400;-77
2023/04/20 09:03:14;;;;;;;;;11.67;11.67;;;;;21.05;21.89;101097.22;5068821;27;45443;-75
2023/04/20 09:05:40;;;;;;;;;15.00;14.33;;;;;21.00;22.06;101134.81;5081860;27;45629;-75
2023/04/20 09:08:07;;;;;;;;;18.33;14.33;;;;;21.28;21.77;101137.47;5079413;27;45714;-75
2023/04/20 09:10:42;;;;;;;;;17.00;16.00;;;;;21.97;20.70;101137.09;5083183;27;45504;-76
2023/04/20 09:13:19;;;;;;;;;7.33;7.33;;;;;21.44;21.29;101134.38;5076661;27;45314;-75
2023/04/20 09:15:44;;;;;;;;;18.00;15.67;;;;;21.74;21.18;101105.03;5058744;28;45235;-77
2023/04/20 09:18:13;;;;;;;;;16.33;14.33;;;;;22.35;20.46;101031.63;5093594;27;47586;-75
2023/04/20 09:20:39;;;;;;;;;12.33;11.33;;;;;24.19;18.88;101104.66;5091922;27;45219;-76
2023/04/20 09:23:15;;;;;;;;;13.33;13.33;;;;;25.46;18.14;101094.72;5096773;27;45342;-77
2023/04/20 09:25:42;;;;;;;;;17.00;14.67;;;;;26.96;16.65;101088.53;5077356;27;45465;-74
2023/04/20 09:28:08;;;;;;;;;18.00;14.33;;;;;27.87;16.33;101083.06;5080045;27;46706;-74
2023/04/20 09:30:42;;;;;;;;;11.00;10.00;;;;;28.44;14.32;101102.75;5078526;27;45626;-76
2023/04/20 09:33:10;;;;;;;;;13.33;13.33;;;;;28.39;14.96;101063.56;5096205;27;45563;-74
2023/04/20 09:35:40;;;;;;;;;9.00;6.33;;;;;28.33;14.48;101080.97;5080934;27;45526;-76
2023/04/20 09:38:13;;;;;;;;;13.00;13.00;;;;;28.00;14.80;101058.09;5080358;27;46777;-74
2023/04/20 09:40:39;;;;;;;;;15.00;15.00;;;;;28.90;14.67;101077.88;5063270;27;45463;-74
2023/04/20 09:43:19;;;;;;;;;16.00;13.67;;;;;28.62;14.42;101046.88;5073088;28;46401;-73
2023/04/20 09:45:44;;;;;;;;;12.33;12.33;;;;;28.03;14.91;101059.47;5077407;28;45540;-74
2023/04/20 09:48:10;;;;;;;;;14.33;13.00;;;;;28.02;14.87;101017.66;5079237;28;45623;-74
2023/04/20 09:50:37;;;;;;;;;13.00;11.33;;;;;27.44;15.38;100933.50;5079423;28;45558;-77
2023/04/20 09:53:04;;;;;;;;;12.33;11.33;;;;;28.81;15.12;101035.56;5061545;28;45330;-74
2023/04/20 09:55:30;;;;;;;;;12.67;11.33;;;;;29.32;14.15;101024.06;5084713;27;45454;-75
2023/04/20 09:57:57;;;;;;;;;14.33;14.00;;;;;28.83;14.49;101008.78;5088470;27;46464;-75
2023/04/20 10:00:23;;;;;;;;;9.33;8.00;;;;;28.64;14.78;100983.72;5082377;27;45379;-74
2023/04/20 10:02:49;;;;;;;;;8.00;7.00;;;;;27.77;14.87;100919.78;5080570;28;45553;-74
2023/04/20 10:05:15;;;;;;;;;12.33;11.00;;;;;26.40;16.06;100870.38;5079425;27;45265;-74
2023/04/20 10:07:41;;;;;;;;;13.00;11.67;;;;;26.04;16.51;100891.50;5079100;28;46211;-76
2023/04/20 10:10:09;;;;;;;;;11.33;11.33;;;;;26.46;16.88;101013.91;5059298;28;45553;-75
2023/04/20 10:12:47;;;;;;;;;10.67;10.67;;;;;26.38;16.99;101037.75;5078401;27;45289;-76
2023/04/20 10:15:12;;;;;;;;;11.67;8.33;;;;;25.72;17.90;101011.75;5088006;27;45476;-75
2023/04/20 10:17:38;;;;;;;;;8.00;8.00;;;;;24.34;19.08;101011.94;5090681;27;45378;-75
2023/04/20 10:20:03;;;;;;;;;13.33;12.33;;;;;23.33;20.05;100996.03;5059626;28;45470;-73
2023/04/20 10:22:34;;;;;;;;;10.33;9.67;;;;;22.72;20.94;101021.88;5079496;28;45463;-73
2023/04/20 10:25:01;;;;;;;;;10.00;10.00;;;;;21.73;21.96;100981.59;5079362;27;45521;-74
2023/04/20 10:27:27;;;;;;;;;11.33;11.33;;;;;18.71;22.43;100525.69;5060772;28;45981;-75
2023/04/20 10:29:53;;;;;;;;;12.33;12.33;;;;;19.63;22.85;100775.88;5078889;28;45598;-72
2023/04/20 10:32:27;;;;;;;;;12.67;11.67;;;;;20.64;23.53;101040.56;5078794;28;45335;-72
2023/04/20 10:35:10;;;;;;;;;13.33;13.00;;;;;18.91;25.03;100948.72;5079488;28;45457;-75
2023/04/20 10:37:47;;;;;;;;;13.33;13.33;;;;;17.76;26.13;100886.75;5078358;28;46565;-73
2023/04/20 10:40:12;;;;;;;;;10.67;10.33;;;;;18.58;26.12;101047.97;5081215;27;45475;-74
2023/04/20 10:42:44;;;;;;;;;12.33;12.33;;;;;16.97;27.25;100880.19;5072064;28;45240;-76
2023/04/20 10:45:10;;;;;;;;;15.33;12.33;;;;;16.23;28.48;100850.41;5064874;28;45439;-76
2023/04/20 10:47:36;;;;;;;;;12.00;8.00;;;;;16.26;29.67;100964.56;5083869;27;46295;-73
2023/04/20 10:50:13;;;;;;;;;13.00;12.00;;;;;16.21;30.15;100988.38;5087208;27;45422;-73
2023/04/20 10:52:41;;;;;;;;;13.67;11.67;;;;;16.11;30.71;100984.09;5089130;27;45572;-75
2023/04/20 10:55:21;;;;;;;;;11.67;11.67;;;;;16.17;30.48;100984.38;5075879;27;45356;-75
2023/04/20 10:57:47;;;;;;;;;19.00;17.67;;;;;16.39;30.22;101011.28;5074005;28;46975;-73
2023/04/20 11:00:17;;;;;;;;;16.00;16.00;;;;;16.29;30.81;101026.75;5091627;27;45465;-75
2023/04/20 11:02:47;;;;;;;;;18.67;16.33;;;;;16.15;31.18;101032.84;5092780;27;45339;-76
2023/04/20 11:05:20;;;;;;;;;16.67;16.00;;;;;16.03;31.43;101026.19;5075798;27;45557;-74
2023/04/20 11:08:06;;;;;;;;;22.67;21.67;;;;;15.61;31.92;100964.81;5078207;27;46526;-73
2023/04/20 11:10:39;;;;;;;;;19.00;18.67;;;;;15.84;32.29;101002.47;5073170;27;45308;-76
2023/04/20 11:13:05;;;;;;;;;16.67;13.33;;;;;15.76;32.56;101028.25;5059829;28;45427;-75